[Date Prev][Date Next][Thread Prev][Thread Next][Date Index][Thread Index]

No Subject




****  04/20/98   Preliminary Accident/Incident Data Record  RECORD   1 ****
A. Type: Accident  Mid Air:N  Missing:N   Entry date: 04/20/98
From: GREAT LAKES REGION OPERATIONS CENTER

B. Reg.No.: 234Q        M/M: EXP            Desc: EXP/HMBLT:  VELOCITY
Activity: Unknown   Phase: Unknown   GA-A/C: General Aviation
Descr: SUSPECT ACFT (EXPERIMENTAL VELOCITY) WAS BEING TRACKED BY THE U.S.
       CUSTOMS SERVICE WHEN IT CRASHED UNDER UNKNOWN CIRCUMSTANCES IN A
       SCHOOL PLAYGROUND, THE PILOT/SOLE OCCUPANT SUFFERED FATAL INJURIES,
       THE ACFT WAS DESTROYED, DRUGS WERE FOUND ON BOARD THE ACFT,
       DETROIT, MI.

WX: METAR KDTW 192156Z 02019KT 7SM -RA BKN028 OVC038 08/07 A3000  Damage:
Destroyed
C2. Injury Data: # Crew:   1     Fat:   1     Ser:   0     Min:   0    Unk:
                 # Pass:   0     Fat:   0     Ser:   0     Min:   0    Unk:
                 # Grnd:         Fat:   0     Ser:   0     Min:   0    UNK:
D. Location  City: DETROIT                   State: MI
E. Occ Date: 04/19/98   Time: 22:09
F. Invest Coverage.  IIC:   Reg/DO: GL23  DO CTY: DETROIT
DO State: MI  Others: NTSB, US CUSTOMS
G. Flt Handling.  Dep Pt: UNKN  Dep Date:   /  /     Time:
Dest: UNKN Last Radio Cont: UNKN             Flt Plan: UNK
Last Clearance: UNKN            WX Briefing:
Other:
                                            AAI IIC: